Time;durP1;ratioP1;P1;durP2;ratioP2;P2;SDS_P1;SDS_P2;PMS_P1;PMS_P2;Temp;Humidity;BMP_temperature;BMP_pressure;BME280_temperature;BME280_humidity;BME280_pressure;Samples;Min_cycle;Max_cycle;Signal;HPM_P1;HPM_P2
2022/06/22 00:00:23;;;;;;;12.02;7.50;;;20.80;99.90;;;;;;5074470;28;20424;-54
2022/06/22 00:02:52;;;;;;;9.68;6.78;;;20.70;99.90;;;;;;5074169;28;20487;-54
2022/06/22 00:05:27;;;;;;;17.90;7.15;;;20.60;99.90;;;;;;5074030;28;20035;-54
2022/06/22 00:07:57;;;;;;;10.13;7.38;;;20.60;99.90;;;;;;5074316;28;20115;-54
2022/06/22 00:10:40;;;;;;;12.88;7.70;;;20.50;99.90;;;;;;5074801;28;20024;-54
2022/06/22 00:13:19;;;;;;;10.02;7.55;;;20.50;99.90;;;;;;5074005;28;20040;-54
2022/06/22 00:15:51;;;;;;;16.08;7.55;;;20.50;99.90;;;;;;5074234;28;20423;-54
2022/06/22 00:18:22;;;;;;;17.85;7.35;;;20.50;99.90;;;;;;5074255;28;20024;-54
2022/06/22 00:20:51;;;;;;;12.27;7.75;;;20.50;99.90;;;;;;5074058;28;20021;-54
2022/06/22 00:23:39;;;;;;;9.20;6.75;;;20.50;99.90;;;;;;5074102;28;20051;-54
2022/06/22 00:26:06;;;;;;;9.45;7.00;;;20.40;99.90;;;;;;5073997;28;20017;-54
2022/06/22 00:28:52;;;;;;;14.30;7.55;;;20.40;99.90;;;;;;5073814;28;20025;-54
2022/06/22 00:31:46;;;;;;;12.48;7.55;;;20.30;99.90;;;;;;5074199;28;20025;-54
2022/06/22 00:34:16;;;;;;;13.80;7.68;;;20.30;99.90;;;;;;5077666;28;20024;-54
2022/06/22 00:37:01;;;;;;;10.70;7.55;;;20.30;99.90;;;;;;5078221;28;20020;-54
2022/06/22 00:39:33;;;;;;;14.13;7.03;;;20.20;99.90;;;;;;5077886;28;20027;-54
2022/06/22 00:42:21;;;;;;;15.18;7.63;;;20.20;99.90;;;;;;5077861;28;20032;-54
2022/06/22 00:45:19;;;;;;;12.85;7.60;;;20.10;99.90;;;;;;5077792;28;20024;-54
2022/06/22 00:48:01;;;;;;;13.98;7.78;;;20.10;99.90;;;;;;5077768;28;20037;-54
2022/06/22 00:50:41;;;;;;;10.30;7.43;;;20.10;99.90;;;;;;5077888;28;20078;-54
2022/06/22 00:53:27;;;;;;;14.03;7.53;;;20.10;99.90;;;;;;5077465;28;20048;-54
2022/06/22 00:55:59;;;;;;;13.60;7.45;;;20.10;99.90;;;;;;5077673;28;20025;-54
2022/06/22 00:58:44;;;;;;;11.75;7.03;;;20.00;99.90;;;;;;5077913;28;20107;-54
2022/06/22 01:01:24;;;;;;;12.90;7.85;;;20.00;99.90;;;;;;5077576;28;20126;-54
2022/06/22 01:04:11;;;;;;;;;;;20.00;99.90;;;;;;5077503;28;20473;-54
2022/06/22 01:06:51;;;;;;;21.90;9.13;;;20.00;99.90;;;;;;5077371;28;19912;-54
2022/06/22 01:09:33;;;;;;;12.70;8.05;;;19.90;99.90;;;;;;5077286;28;20062;-54
2022/06/22 01:12:17;;;;;;;14.40;8.07;;;19.90;99.90;;;;;;5077646;28;20032;-54
2022/06/22 01:14:52;;;;;;;14.70;8.48;;;19.80;99.90;;;;;;5077251;28;20413;-54
2022/06/22 01:17:50;;;;;;;18.48;8.95;;;19.70;99.90;;;;;;5077117;28;20044;-54
2022/06/22 01:20:29;;;;;;;15.00;9.20;;;19.70;99.90;;;;;;5077284;28;20047;-54
2022/06/22 01:23:20;;;;;;;15.73;7.78;;;19.70;99.90;;;;;;5077115;28;20176;-54
2022/06/22 01:26:23;;;;;;;15.40;9.38;;;19.60;99.90;;;;;;5077207;28;20028;-54
2022/06/22 01:29:00;;;;;;;18.00;8.90;;;19.50;99.90;;;;;;5060655;28;20127;-54
2022/06/22 01:31:28;;;;;;;14.60;8.52;;;19.50;99.90;;;;;;5076949;28;20030;-54
2022/06/22 01:33:54;;;;;;;15.90;9.27;;;19.60;99.90;;;;;;5077080;28;20031;-54
2022/06/22 01:36:26;;;;;;;12.70;8.40;;;19.50;99.90;;;;;;5076944;28;20032;-54
2022/06/22 01:38:52;;;;;;;17.27;8.10;;;19.50;99.90;;;;;;5076714;28;20028;-54
2022/06/22 01:41:40;;;;;;;13.15;8.85;;;19.40;99.90;;;;;;5076612;28;20092;-54
2022/06/22 01:44:15;;;;;;;16.73;8.57;;;19.50;99.90;;;;;;5075648;28;20036;-54
2022/06/22 01:46:50;;;;;;;13.13;8.80;;;19.50;99.90;;;;;;5076460;28;20032;-54
2022/06/22 01:49:22;;;;;;;14.88;8.10;;;19.40;99.90;;;;;;5076921;28;20029;-54
2022/06/22 01:51:54;;;;;;;17.27;9.07;;;19.40;99.90;;;;;;5076061;28;20032;-55
2022/06/22 01:54:23;;;;;;;14.52;8.20;;;19.30;99.90;;;;;;5076680;28;20043;-54
2022/06/22 01:57:06;;;;;;;13.52;8.45;;;19.20;99.90;;;;;;5076643;28;20021;-54
2022/06/22 01:59:42;;;;;;;12.20;8.43;;;19.10;99.90;;;;;;5076321;28;20025;-54
2022/06/22 02:02:16;;;;;;;14.85;9.50;;;19.10;99.90;;;;;;5076544;28;20497;-54
2022/06/22 02:04:47;;;;;;;12.55;8.60;;;19.00;99.90;;;;;;5076076;28;20435;-54
2022/06/22 02:07:46;;;;;;;13.68;8.65;;;19.00;99.90;;;;;;5076304;28;20028;-54
2022/06/22 02:10:24;;;;;;;14.65;8.90;;;19.00;99.90;;;;;;5076364;28;20029;-54
2022/06/22 02:12:57;;;;;;;16.58;8.90;;;18.90;99.90;;;;;;5076033;28;20040;-54
2022/06/22 02:15:38;;;;;;;13.50;9.30;;;18.80;99.90;;;;;;5076132;28;20062;-54
2022/06/22 02:18:20;;;;;;;14.63;8.45;;;18.90;99.90;;;;;;5076055;28;20021;-54
2022/06/22 02:20:46;;;;;;;16.05;9.05;;;18.90;99.90;;;;;;5076039;28;20044;-54
2022/06/22 02:23:15;;;;;;;15.25;9.38;;;18.90;99.90;;;;;;5075907;28;20028;-54
2022/06/22 02:26:01;;;;;;;14.40;8.57;;;18.90;99.90;;;;;;5075865;28;20031;-54
2022/06/22 02:28:27;;;;;;;12.45;9.35;;;18.80;99.90;;;;;;5075710;28;20386;-54
2022/06/22 02:30:53;;;;;;;13.25;8.95;;;18.80;99.90;;;;;;5075781;28;20021;-54
2022/06/22 02:33:20;;;;;;;15.15;9.57;;;18.80;99.90;;;;;;5075655;28;20465;-54
2022/06/22 02:35:46;;;;;;;11.45;9.48;;;18.80;99.90;;;;;;5075708;28;20024;-54
2022/06/22 02:38:14;;;;;;;16.65;9.32;;;18.80;99.90;;;;;;5075740;28;20025;-54
2022/06/22 02:46:20;;;;;;;16.55;9.38;;;18.80;99.90;;;;;;5075591;28;20118;-54
2022/06/22 02:48:51;;;;;;;17.75;9.55;;;18.80;99.90;;;;;;5075428;28;20029;-54
2022/06/22 02:51:26;;;;;;;16.52;9.63;;;18.80;99.90;;;;;;5075337;28;20393;-54
2022/06/22 02:53:56;;;;;;;16.77;9.25;;;18.80;99.90;;;;;;5075513;28;20489;-55
2022/06/22 02:56:42;;;;;;;17.52;10.48;;;18.80;99.90;;;;;;5074993;28;20035;-54
2022/06/22 02:59:09;;;;;;;14.63;9.68;;;18.80;99.90;;;;;;5075242;28;20108;-54
2022/06/22 03:01:37;;;;;;;20.98;9.73;;;18.80;99.90;;;;;;5075161;28;20035;-54
2022/06/22 03:04:11;;;;;;;22.88;10.07;;;18.80;99.90;;;;;;5074923;28;20044;-54
2022/06/22 03:06:42;;;;;;;22.02;10.40;;;18.80;99.90;;;;;;5075091;28;20082;-54
2022/06/22 03:09:09;;;;;;;16.92;9.63;;;18.80;99.90;;;;;;5075367;28;20541;-54
2022/06/22 03:11:42;;;;;;;16.98;10.70;;;18.90;99.90;;;;;;5074984;28;20055;-54
2022/06/22 03:14:25;;;;;;;18.70;10.35;;;18.90;99.90;;;;;;5074916;28;20432;-54
2022/06/22 03:17:14;;;;;;;12.13;9.55;;;18.80;99.90;;;;;;5074742;28;20024;-54
2022/06/22 03:19:56;;;;;;;21.33;10.57;;;18.90;99.90;;;;;;5074733;28;20565;-54
2022/06/22 03:23:00;;;;;;;16.50;11.57;;;18.90;99.90;;;;;;5074909;28;20028;-54
2022/06/22 03:25:36;;;;;;;20.05;11.25;;;19.00;99.90;;;;;;5052881;28;20036;-55
2022/06/22 03:28:08;;;;;;;19.00;10.50;;;19.00;99.90;;;;;;5074715;28;20039;-55
2022/06/22 03:30:56;;;;;;;17.42;10.05;;;19.00;99.90;;;;;;5074701;28;20039;-54
2022/06/22 03:33:47;;;;;;;19.58;10.48;;;19.00;99.90;;;;;;5074584;28;20448;-54
2022/06/22 03:36:26;;;;;;;17.50;10.27;;;19.10;99.90;;;;;;5074926;28;20315;-54
2022/06/22 03:39:06;;;;;;;19.50;10.57;;;19.20;99.90;;;;;;5074713;28;20028;-54
2022/06/22 03:41:37;;;;;;;19.95;10.32;;;19.30;99.90;;;;;;5074286;28;20029;-55
2022/06/22 03:44:12;;;;;;;16.42;9.15;;;19.30;99.90;;;;;;5074673;28;20029;-54
2022/06/22 03:46:49;;;;;;;15.32;9.73;;;19.30;99.90;;;;;;5074397;28;20036;-54
2022/06/22 03:49:38;;;;;;;12.57;8.68;;;19.40;99.90;;;;;;5074567;28;20029;-55
2022/06/22 03:52:26;;;;;;;18.40;9.60;;;19.40;99.90;;;;;;5073734;28;20131;-55
2022/06/22 03:55:00;;;;;;;13.75;8.80;;;19.40;99.90;;;;;;5074339;28;20032;-54
2022/06/22 03:57:29;;;;;;;19.73;10.10;;;19.60;99.90;;;;;;5074809;28;20028;-55
2022/06/22 03:59:56;;;;;;;17.70;9.73;;;19.60;99.90;;;;;;5074559;28;20031;-55
2022/06/22 04:02:25;;;;;;;24.85;12.50;;;19.60;99.90;;;;;;5074201;28;20451;-54
2022/06/22 04:04:54;;;;;;;23.27;10.85;;;19.60;99.90;;;;;;5074172;28;20024;-54
2022/06/22 04:07:22;;;;;;;22.67;11.57;;;19.50;99.90;;;;;;5073577;28;20078;-55
2022/06/22 04:09:55;;;;;;;28.17;11.23;;;19.70;99.90;;;;;;5074365;28;20459;-55
2022/06/22 04:12:35;;;;;;;27.75;11.05;;;19.70;99.90;;;;;;5074396;28;20139;-55
2022/06/22 04:15:16;;;;;;;18.73;10.55;;;19.80;99.90;;;;;;5074301;28;20025;-54
2022/06/22 04:18:07;;;;;;;26.70;10.65;;;19.90;99.90;;;;;;5074183;28;20067;-54
2022/06/22 04:20:51;;;;;;;;;;;19.90;99.90;;;;;;5074852;28;20024;-55
2022/06/22 04:23:45;;;;;;;22.88;10.68;;;20.00;99.90;;;;;;5074605;28;19908;-55
2022/06/22 04:26:30;;;;;;;21.50;10.57;;;19.90;99.90;;;;;;5074110;28;20028;-55
2022/06/22 04:29:04;;;;;;;16.17;10.10;;;20.00;99.90;;;;;;5073985;28;20028;-55
2022/06/22 04:31:35;;;;;;;26.33;10.82;;;20.10;99.90;;;;;;5073953;28;20115;-55
2022/06/22 04:34:08;;;;;;;17.90;9.75;;;20.10;99.90;;;;;;5074011;28;20034;-55
2022/06/22 04:36:41;;;;;;;22.75;9.82;;;20.20;99.90;;;;;;5073876;28;20394;-55
2022/06/22 04:39:13;;;;;;;16.30;10.15;;;20.20;99.90;;;;;;5073933;28;20020;-55
2022/06/22 04:41:41;;;;;;;17.10;9.43;;;20.30;99.90;;;;;;5073861;28;20028;-55
2022/06/22 04:44:17;;;;;;;12.85;8.68;;;20.30;99.90;;;;;;5073839;28;20040;-55
2022/06/22 04:46:50;;;;;;;13.80;8.77;;;20.50;99.90;;;;;;5073768;28;20020;-55
2022/06/22 04:49:22;;;;;;;18.83;8.63;;;20.70;99.90;;;;;;5073857;28;20024;-55
2022/06/22 04:51:54;;;;;;;13.60;7.50;;;20.80;99.90;;;;;;5073818;28;20021;-55
2022/06/22 04:54:38;;;;;;;18.80;7.28;;;20.90;99.90;;;;;;5074349;28;20047;-54
2022/06/22 04:57:32;;;;;;;16.27;6.82;;;20.90;99.90;;;;;;5073713;28;20058;-55
2022/06/22 05:00:20;;;;;;;14.45;7.55;;;21.00;99.90;;;;;;5072348;28;20390;-55
2022/06/22 05:02:49;;;;;;;16.30;7.13;;;21.00;99.90;;;;;;5073443;28;20049;-55
2022/06/22 05:05:17;;;;;;;11.93;6.38;;;21.00;99.90;;;;;;5073771;28;20063;-54
2022/06/22 05:08:04;;;;;;;10.23;7.30;;;21.10;99.90;;;;;;5073547;28;20028;-55
2022/06/22 05:10:41;;;;;;;22.77;7.57;;;21.20;99.90;;;;;;5073712;28;20036;-55
2022/06/22 05:13:42;;;;;;;11.68;6.75;;;21.20;99.90;;;;;;5073634;28;20639;-55
2022/06/22 05:16:14;;;;;;;14.93;7.10;;;21.20;99.90;;;;;;5073589;28;20024;-55
2022/06/22 05:18:42;;;;;;;12.65;6.97;;;21.20;99.90;;;;;;5073469;28;20062;-55
2022/06/22 05:21:39;;;;;;;10.13;6.43;;;21.20;99.90;;;;;;5076879;28;20078;-55
2022/06/22 05:24:21;;;;;;;12.75;6.75;;;21.20;99.90;;;;;;5073712;28;20040;-55
2022/06/22 05:26:50;;;;;;;12.25;6.07;;;21.30;99.90;;;;;;5077001;28;20035;-55
2022/06/22 05:29:29;;;;;;;16.65;6.85;;;21.40;99.90;;;;;;5074630;28;20029;-55
2022/06/22 05:31:59;;;;;;;12.75;6.13;;;21.50;99.90;;;;;;5076941;28;20032;-55
2022/06/22 05:34:30;;;;;;;13.18;5.82;;;21.50;99.90;;;;;;5076597;28;20028;-55
2022/06/22 05:37:03;;;;;;;19.38;6.00;;;21.50;99.90;;;;;;5076617;28;20033;-55
2022/06/22 05:39:32;;;;;;;12.70;5.53;;;21.60;99.90;;;;;;5076543;28;20060;-55
2022/06/22 05:41:59;;;;;;;13.15;5.03;;;21.80;99.90;;;;;;5076942;28;20085;-55
2022/06/22 05:44:26;;;;;;;20.50;5.60;;;21.80;99.90;;;;;;5076792;28;20028;-55
2022/06/22 05:46:55;;;;;;;16.67;5.00;;;21.90;99.90;;;;;;5076536;28;20027;-55
2022/06/22 05:49:44;;;;;;;16.58;4.50;;;21.90;99.90;;;;;;5076411;28;20043;-55
2022/06/22 05:52:16;;;;;;;18.00;5.50;;;21.90;99.90;;;;;;5075883;28;20132;-55
2022/06/22 05:54:52;;;;;;;24.17;6.55;;;21.90;99.90;;;;;;5076384;28;20035;-55
2022/06/22 05:57:42;;;;;;;15.48;5.07;;;21.90;99.90;;;;;;5074868;28;20036;-55
2022/06/22 06:00:21;;;;;;;13.60;5.45;;;22.20;98.70;;;;;;5076321;28;20032;-55
2022/06/22 06:02:56;;;;;;;13.32;4.63;;;22.30;99.50;;;;;;5091904;28;20059;-54
2022/06/22 06:05:29;;;;;;;12.52;5.25;;;22.50;95.30;;;;;;5076013;28;20024;-55
2022/06/22 06:07:57;;;;;;;26.30;7.45;;;22.60;92.20;;;;;;5075366;28;20462;-55
2022/06/22 06:10:30;;;;;;;70.15;9.15;;;22.60;93.60;;;;;;5075568;28;20387;-55
2022/06/22 06:13:02;;;;;;;14.80;5.30;;;22.80;91.80;;;;;;5075741;28;20425;-55
2022/06/22 06:15:36;;;;;;;13.55;5.15;;;22.90;93.10;;;;;;5075766;28;20470;-55
2022/06/22 06:18:04;;;;;;;13.60;5.35;;;23.00;95.60;;;;;;5075831;28;20035;-55
2022/06/22 06:20:40;;;;;;;17.25;6.50;;;23.10;93.80;;;;;;5075764;28;20025;-55
2022/06/22 06:23:18;;;;;;;13.23;5.22;;;23.10;90.60;;;;;;5075716;28;20028;-55
2022/06/22 06:29:05;;;;;;;23.50;6.80;;;23.30;90.30;;;;;;5074945;28;20028;-55
2022/06/22 06:31:57;;;;;;;12.27;6.50;;;23.30;96.10;;;;;;5074866;28;20056;-55
2022/06/22 06:34:30;;;;;;;13.35;6.20;;;23.50;99.50;;;;;;5072384;28;20529;-55
2022/06/22 06:37:01;;;;;;;22.50;8.07;;;23.50;99.90;;;;;;5075439;28;20028;-55
2022/06/22 06:39:29;;;;;;;;;;;23.50;99.90;;;;;;5075792;28;20043;-55
2022/06/22 06:42:06;;;;;;;11.95;6.07;;;23.50;99.80;;;;;;5075049;28;19908;-55
2022/06/22 06:44:37;;;;;;;30.27;8.50;;;23.60;99.50;;;;;;5073906;28;20036;-55
2022/06/22 06:47:19;;;;;;;28.75;7.65;;;23.50;98.70;;;;;;5075474;28;20123;-55
2022/06/22 06:50:07;;;;;;;24.58;7.75;;;23.30;97.50;;;;;;5075116;28;20059;-55
2022/06/22 06:52:46;;;;;;;17.98;6.93;;;23.50;98.60;;;;;;5074411;28;20058;-55
2022/06/22 06:55:30;;;;;;;16.92;6.80;;;23.60;99.10;;;;;;5074633;28;20045;-55
2022/06/22 06:58:07;;;;;;;23.60;6.82;;;23.80;98.10;;;;;;5074097;28;20493;-55
2022/06/22 07:00:33;;;;;;;20.35;7.10;;;23.80;96.80;;;;;;5073823;28;20016;-55
2022/06/22 07:03:00;;;;;;;34.58;8.57;;;24.00;93.80;;;;;;5074636;28;20020;-55
2022/06/22 07:05:29;;;;;;;17.33;7.93;;;24.20;94.80;;;;;;5074307;28;20383;-55
2022/06/22 07:08:06;;;;;;;22.85;6.53;;;24.40;91.60;;;;;;5074509;28;20051;-55
2022/06/22 07:10:41;;;;;;;20.52;7.10;;;24.60;84.70;;;;;;5072378;28;20027;-55
2022/06/22 07:13:38;;;;;;;28.88;7.82;;;24.90;78.00;;;;;;5073805;28;20111;-55
2022/06/22 07:16:11;;;;;;;18.92;6.32;;;24.90;80.10;;;;;;5070881;28;20056;-55
2022/06/22 07:18:47;;;;;;;17.40;6.88;;;25.00;71.40;;;;;;5074236;28;20024;-55
2022/06/22 07:21:25;;;;;;;13.00;5.47;;;25.10;79.00;;;;;;5072507;28;20017;-55
2022/06/22 07:23:57;;;;;;;12.10;4.97;;;25.20;71.60;;;;;;5073506;28;20036;-55
2022/06/22 07:26:52;;;;;;;20.67;7.30;;;25.00;70.20;;;;;;5075677;28;20134;-55
2022/06/22 07:29:37;;;;;;;17.38;7.47;;;25.30;73.80;;;;;;5074221;28;20025;-55
2022/06/22 07:32:12;;;;;;;21.27;6.85;;;25.30;71.60;;;;;;5073782;28;20021;-55
2022/06/22 07:34:47;;;;;;;12.65;4.55;;;25.50;72.80;;;;;;5073700;28;20526;-55
2022/06/22 07:37:23;;;;;;;9.20;3.78;;;25.40;63.80;;;;;;5073902;28;20021;-55
2022/06/22 07:40:07;;;;;;;17.63;4.65;;;25.40;64.20;;;;;;5074236;28;20035;-55
2022/06/22 07:42:33;;;;;;;8.55;3.70;;;25.20;66.10;;;;;;5071988;28;20029;-55
2022/06/22 07:45:00;;;;;;;16.42;4.85;;;25.40;69.00;;;;;;5074723;28;20039;-55
2022/06/22 07:47:36;;;;;;;8.70;3.70;;;25.60;66.00;;;;;;5073142;28;20463;-55
2022/06/22 07:50:23;;;;;;;9.95;4.97;;;25.80;65.10;;;;;;5072665;28;20032;-55
2022/06/22 07:53:04;;;;;;;12.25;5.60;;;26.20;68.20;;;;;;5074573;28;20482;-55
2022/06/22 07:56:01;;;;;;;6.90;3.95;;;26.60;66.60;;;;;;5073335;28;20020;-55
2022/06/22 07:58:47;;;;;;;15.20;4.63;;;26.60;62.70;;;;;;5074009;28;20025;-55
2022/06/22 08:01:16;;;;;;;7.63;4.93;;;25.90;62.20;;;;;;5074079;28;20044;-55
2022/06/22 08:04:07;;;;;;;10.80;4.47;;;26.50;65.80;;;;;;5071602;28;20441;-55
2022/06/22 08:06:44;;;;;;;21.50;7.15;;;27.10;66.60;;;;;;5044442;28;20036;-55
2022/06/22 08:09:42;;;;;;;11.88;5.32;;;27.10;60.90;;;;;;5073652;28;20028;-55
2022/06/22 08:12:20;;;;;;;14.32;5.28;;;27.50;60.30;;;;;;5038701;28;20479;-55
2022/06/22 08:14:49;;;;;;;15.45;4.50;;;27.70;62.20;;;;;;5074303;28;20108;-55
2022/06/22 08:17:39;;;;;;;21.45;6.32;;;27.80;57.90;;;;;;5073948;28;20135;-55
2022/06/22 08:20:06;;;;;;;27.10;7.32;;;27.70;58.20;;;;;;5074481;28;20479;-55
2022/06/22 08:22:32;;;;;;;12.85;6.15;;;27.90;59.60;;;;;;5074954;28;20031;-55
2022/06/22 08:25:01;;;;;;;13.00;6.38;;;28.00;58.40;;;;;;5074672;28;20451;-55
2022/06/22 08:27:28;;;;;;;12.82;5.75;;;28.10;56.90;;;;;;5074235;28;20032;-55
2022/06/22 08:29:56;;;;;;;16.90;6.07;;;27.80;57.00;;;;;;5074002;28;20086;-55
2022/06/22 08:32:50;;;;;;;12.98;5.50;;;27.60;57.80;;;;;;5073727;28;20055;-55
2022/06/22 08:35:26;;;;;;;26.42;6.88;;;27.60;55.70;;;;;;5073746;28;20025;-55
2022/06/22 08:38:07;;;;;;;13.35;6.28;;;28.10;57.70;;;;;;5073626;28;20536;-55
2022/06/22 08:40:56;;;;;;;15.20;7.00;;;28.50;57.00;;;;;;5073928;28;20025;-55
2022/06/22 08:43:37;;;;;;;21.27;7.30;;;28.60;56.00;;;;;;5073955;28;20025;-55
2022/06/22 08:46:16;;;;;;;16.80;6.55;;;28.50;56.20;;;;;;5073654;28;20058;-55
2022/06/22 08:49:07;;;;;;;17.58;6.75;;;28.20;57.00;;;;;;5073878;28;20031;-55
2022/06/22 08:52:00;;;;;;;15.85;6.65;;;28.40;57.40;;;;;;5054359;28;20139;-55
2022/06/22 08:54:38;;;;;;;14.80;5.97;;;28.50;55.60;;;;;;5056987;28;20757;-55
2022/06/22 08:57:26;;;;;;;18.05;6.75;;;27.80;56.70;;;;;;5058385;28;20110;-55
2022/06/22 08:59:58;;;;;;;23.42;8.27;;;28.10;55.70;;;;;;5058229;28;20332;-55
2022/06/22 09:02:43;;;;;;;14.95;7.35;;;28.20;55.50;;;;;;5058070;28;20107;-55
2022/06/22 09:05:34;;;;;;;18.48;6.50;;;28.30;55.90;;;;;;5057205;28;20478;-55
2022/06/22 09:08:26;;;;;;;17.05;6.78;;;28.50;56.20;;;;;;5057162;28;20518;-55
2022/06/22 09:11:18;;;;;;;28.00;7.47;;;28.40;55.00;;;;;;5049824;28;20045;-55
2022/06/22 09:14:12;;;;;;;24.25;8.05;;;28.50;56.70;;;;;;5057397;28;20039;-55
2022/06/22 09:17:08;;;;;;;27.50;11.93;;;28.30;56.50;;;;;;5056801;28;20028;-54
2022/06/22 09:19:49;;;;;;;26.10;9.02;;;28.50;56.70;;;;;;5056841;28;20501;-55
2022/06/22 09:22:25;;;;;;;28.10;9.68;;;28.80;58.90;;;;;;5057008;28;20059;-55
2022/06/22 09:25:01;;;;;;;25.38;9.25;;;28.90;56.80;;;;;;5057119;28;20230;-55
2022/06/22 09:27:39;;;;;;;29.20;9.82;;;29.20;57.70;;;;;;5056532;28;20097;-55
2022/06/22 09:30:24;;;;;;;32.08;9.07;;;29.30;56.30;;;;;;5063533;28;20020;-55
2022/06/22 09:32:55;;;;;;;23.27;9.02;;;30.00;54.90;;;;;;5076244;28;20376;-55
2022/06/22 09:35:40;;;;;;;21.83;8.85;;;29.80;56.30;;;;;;5075913;28;20438;-55
2022/06/22 09:38:21;;;;;;;40.00;11.70;;;30.20;53.90;;;;;;5075209;28;20024;-55
2022/06/22 09:40:55;;;;;;;28.20;8.50;;;29.90;53.80;;;;;;5076132;28;20078;-55
2022/06/22 09:43:55;;;;;;;18.23;8.85;;;30.00;53.60;;;;;;5056542;28;20429;-55
2022/06/22 09:46:25;;;;;;;20.60;9.55;;;30.20;54.20;;;;;;5073646;28;20028;-55
2022/06/22 09:49:21;;;;;;;22.90;11.10;;;31.10;56.60;;;;;;5076274;28;20375;-56
2022/06/22 09:52:21;;;;;;;23.90;10.77;;;31.40;53.90;;;;;;5076403;28;20063;-57
2022/06/22 09:58:09;;;;;;;18.00;9.65;;;31.10;52.70;;;;;;5076577;28;20056;-56
2022/06/22 10:00:53;;;;;;;21.73;10.60;;;31.60;54.40;;;;;;5073876;28;20470;-56
2022/06/22 10:03:46;;;;;;;16.38;8.88;;;31.50;53.70;;;;;;5075832;28;20115;-56
2022/06/22 10:06:40;;;;;;;19.65;9.98;;;31.50;53.30;;;;;;5071656;28;20485;-56
2022/06/22 10:09:14;;;;;;;16.45;9.77;;;32.20;54.00;;;;;;5070886;28;20024;-56
2022/06/22 10:11:58;;;;;;;26.83;9.82;;;32.10;54.70;;;;;;5075559;28;20040;-56
2022/06/22 10:14:29;;;;;;;18.75;9.88;;;32.00;52.60;;;;;;5075342;28;20401;-55
2022/06/22 10:17:24;;;;;;;19.23;8.95;;;32.10;52.30;;;;;;5075727;28;20037;-55
2022/06/22 10:20:14;;;;;;;15.82;8.52;;;31.70;53.20;;;;;;5076055;28;20029;-56
2022/06/22 10:22:54;;;;;;;;;;;32.10;52.90;;;;;;5075995;28;20405;-56
2022/06/22 10:25:36;;;;;;;18.05;8.70;;;32.20;52.90;;;;;;5071764;28;19962;-55
2022/06/22 10:28:32;;;;;;;25.77;9.95;;;31.20;53.00;;;;;;5075443;28;20111;-55
2022/06/22 10:31:15;;;;;;;13.60;8.98;;;31.00;55.00;;;;;;5075583;28;20020;-55
2022/06/22 10:34:06;;;;;;;16.35;7.65;;;31.40;54.20;;;;;;5075657;28;20032;-55
2022/06/22 10:37:06;;;;;;;23.60;8.75;;;32.00;54.20;;;;;;5075102;28;20036;-55
2022/06/22 10:39:41;;;;;;;13.23;8.63;;;32.50;51.90;;;;;;5073462;28;20024;-56
2022/06/22 10:45:09;;;;;;;17.77;8.15;;;33.50;50.90;;;;;;5074625;28;20032;-56
2022/06/22 10:47:53;;;;;;;32.72;9.90;;;33.00;50.90;;;;;;5074285;28;20032;-56
2022/06/22 10:50:38;;;;;;;16.52;7.60;;;33.00;51.90;;;;;;5074761;28;20475;-56
2022/06/22 10:53:39;;;;;;;16.70;8.52;;;33.80;53.40;;;;;;5073433;28;20047;-56
2022/06/22 10:56:05;;;;;;;13.80;7.53;;;33.00;49.10;;;;;;5063494;28;20102;-56
2022/06/22 10:58:58;;;;;;;21.23;7.50;;;33.20;51.90;;;;;;5075543;28;20020;-56
2022/06/22 11:01:40;;;;;;;18.17;8.25;;;33.60;51.40;;;;;;5074232;28;20047;-56
2022/06/22 11:04:17;;;;;;;14.90;7.40;;;33.90;48.30;;;;;;5074869;28;20485;-56
2022/06/22 11:07:09;;;;;;;18.88;8.20;;;33.70;49.20;;;;;;5074449;28;20051;-56
2022/06/22 11:09:51;;;;;;;13.88;8.27;;;33.70;47.90;;;;;;5075025;28;20020;-56
2022/06/22 11:12:37;;;;;;;20.15;9.27;;;33.80;49.00;;;;;;5074972;28;20589;-56
2022/06/22 11:15:18;;;;;;;12.75;8.55;;;33.40;50.70;;;;;;5074449;28;20021;-56
2022/06/22 11:18:09;;;;;;;17.02;8.38;;;33.50;51.30;;;;;;5073498;28;20494;-56
2022/06/22 11:20:47;;;;;;;19.55;8.38;;;32.70;50.00;;;;;;5073910;28;20032;-56
2022/06/22 11:23:24;;;;;;;12.43;8.10;;;33.20;52.30;;;;;;5074576;28;20029;-56
2022/06/22 11:32:26;;;;;;;12.85;7.97;;;34.40;48.80;;;;;;5073410;28;20103;-56
2022/06/22 11:35:22;;;;;;;12.27;7.47;;;34.10;48.10;;;;;;5054646;28;20037;-56
2022/06/22 11:37:54;;;;;;;15.90;8.18;;;34.20;49.30;;;;;;5058609;28;20021;-56
2022/06/22 11:40:51;;;;;;;13.68;7.18;;;33.00;48.10;;;;;;5073896;28;20107;-56
2022/06/22 11:43:26;;;;;;;14.38;8.02;;;33.70;47.60;;;;;;5072931;28;20031;-56
2022/06/22 11:46:07;;;;;;;9.40;6.25;;;33.10;48.70;;;;;;5073766;28;20134;-56
2022/06/22 11:48:48;;;;;;;10.15;7.13;;;33.90;48.90;;;;;;5073717;28;20028;-56
2022/06/22 11:51:39;;;;;;;10.45;6.22;;;34.10;47.50;;;;;;5071909;28;20031;-56
2022/06/22 11:54:49;;;;;;;10.45;6.50;;;34.40;48.10;;;;;;5073699;28;20044;-56
2022/06/22 11:57:29;;;;;;;23.67;10.10;;;34.50;46.40;;;;;;5066832;28;20047;-56
2022/06/22 12:00:04;;;;;;;31.38;9.38;;;33.10;48.40;;;;;;5070861;28;20017;-56
2022/06/22 12:02:41;;;;;;;15.68;6.75;;;33.20;49.40;;;;;;5073685;28;20036;-55
2022/06/22 12:05:34;;;;;;;12.10;7.78;;;33.90;51.60;;;;;;5074034;28;20576;-56
2022/06/22 12:08:19;;;;;;;14.20;6.85;;;33.90;47.10;;;;;;5074151;28;20073;-56
2022/06/22 12:11:15;;;;;;;16.60;6.72;;;34.00;47.00;;;;;;5072547;28;20070;-56
2022/06/22 12:17:10;;;;;;;13.13;6.93;;;33.70;47.40;;;;;;5074225;28;20028;-56
2022/06/22 12:19:47;;;;;;;10.32;5.63;;;33.50;47.90;;;;;;5074293;28;20131;-56
2022/06/22 12:22:22;;;;;;;12.63;5.45;;;33.90;46.30;;;;;;5074429;28;20478;-56
2022/06/22 12:25:20;;;;;;;13.40;5.40;;;33.80;46.10;;;;;;5072964;28;20033;-56
2022/06/22 12:28:12;;;;;;;15.90;5.95;;;33.10;45.50;;;;;;5071053;28;20090;-56
2022/06/22 12:31:07;;;;;;;14.18;7.05;;;33.50;47.40;;;;;;5077950;28;20532;-55
2022/06/22 12:34:04;;;;;;;10.57;5.60;;;33.30;47.70;;;;;;5077252;28;20031;-56
2022/06/22 12:37:09;;;;;;;9.50;5.55;;;34.00;45.80;;;;;;5069447;28;20402;-56
2022/06/22 12:39:46;;;;;;;12.93;6.00;;;32.50;47.10;;;;;;5066796;28;20507;-56
2022/06/22 12:42:46;;;;;;;15.40;7.18;;;32.90;49.40;;;;;;5077102;28;20028;-55
2022/06/22 12:45:55;;;;;;;12.82;6.80;;;33.60;48.40;;;;;;5077565;28;20032;-56
2022/06/22 12:48:42;;;;;;;12.63;5.40;;;33.90;46.70;;;;;;4995179;28;20062;-55
2022/06/22 12:51:33;;;;;;;15.10;6.80;;;34.40;46.60;;;;;;5074508;28;20127;-56
2022/06/22 12:54:06;;;;;;;9.23;5.75;;;34.70;45.00;;;;;;5068704;28;21589;-56
2022/06/22 12:56:59;;;;;;;8.73;5.38;;;34.50;43.60;;;;;;5079658;28;20028;-56
2022/06/22 12:59:31;;;;;;;20.75;6.32;;;34.50;46.90;;;;;;5074133;28;20028;-55
2022/06/22 13:01:56;;;;;;;12.65;5.75;;;34.40;45.70;;;;;;5077371;28;20078;-55
2022/06/22 13:04:33;;;;;;;10.75;5.57;;;34.10;45.90;;;;;;5077134;28;20394;-55
2022/06/22 13:07:10;;;;;;;18.77;6.40;;;34.10;48.00;;;;;;5077232;28;20036;-55
2022/06/22 13:09:37;;;;;;;14.85;6.85;;;33.50;47.50;;;;;;5076534;28;20040;-55
2022/06/22 13:12:30;;;;;;;12.50;5.60;;;33.30;48.70;;;;;;5077361;28;20029;-55
2022/06/22 13:15:03;;;;;;;10.52;6.00;;;33.20;48.40;;;;;;5075997;28;20055;-55
2022/06/22 13:17:51;;;;;;;10.15;5.45;;;32.60;50.90;;;;;;5076895;28;20099;-55
2022/06/22 13:21:12;;;;;;;26.75;8.02;;;33.00;50.30;;;;;;5077011;28;20025;-55
2022/06/22 13:23:59;;;;;;;13.85;6.00;;;32.90;50.60;;;;;;5014049;28;20026;-55
2022/06/22 13:26:32;;;;;;;6.72;4.68;;;33.00;48.90;;;;;;5073755;28;20036;-55
2022/06/22 13:29:21;;;;;;;7.45;4.63;;;33.10;47.80;;;;;;5076754;28;20056;-55
2022/06/22 13:31:49;;;;;;;15.52;5.55;;;32.90;48.60;;;;;;5077036;28;20030;-55
2022/06/22 13:34:20;;;;;;;12.10;5.75;;;32.50;49.00;;;;;;5076413;28;20028;-55
2022/06/22 13:37:14;;;;;;;7.80;4.45;;;32.70;52.40;;;;;;5076688;28;20028;-55
2022/06/22 13:39:43;;;;;;;14.38;5.90;;;33.10;47.90;;;;;;5075799;28;20457;-55
2022/06/22 13:42:28;;;;;;;18.13;5.90;;;32.90;48.10;;;;;;5075769;28;20386;-55
2022/06/22 13:45:00;;;;;;;28.95;7.50;;;33.00;48.70;;;;;;5076076;28;20567;-55
2022/06/22 13:47:26;;;;;;;20.67;7.68;;;32.70;48.40;;;;;;5076972;28;20071;-55
2022/06/22 13:52:47;;;;;;;12.27;5.97;;;32.30;51.90;;;;;;5076371;28;20064;-55
2022/06/22 13:55:16;;;;;;;11.70;4.68;;;31.80;50.40;;;;;;5076844;28;20024;-55
2022/06/22 13:57:47;;;;;;;19.40;6.68;;;31.80;53.50;;;;;;5076447;28;20030;-55
2022/06/22 14:00:44;;;;;;;11.73;4.50;;;31.70;51.50;;;;;;5076495;28;20095;-55
2022/06/22 14:03:30;;;;;;;15.95;5.28;;;31.40;55.50;;;;;;5076647;28;20028;-55
2022/06/22 14:06:10;;;;;;;17.75;6.10;;;30.90;55.20;;;;;;5076334;28;20094;-55
2022/06/22 14:08:43;;;;;;;11.98;5.55;;;30.90;56.30;;;;;;5076289;28;20035;-55